Terminal Aerodrome Forecast
Issued by NWS

Home | Current Version | Previous Version | Text Only | Print | Product List | Glossary On
Versions: 1 2 3 4 5 6 7 8 9 10 11 12 13 14 15 16
000
FTUS43 KMPX 270100 AAA
TAFRNH
TAF AMD
KRNH 270148Z 2702/2724 01007KT 6SM -SN OVC012
      TEMPO 2702/2705 2SM -SN BR BKN007
     FM270500 35008KT 1SM -SN BR BKN007
     FM271000 34008KT 4SM -SN BR BKN012
     FM271600 32008KT P6SM BKN018
     FM272000 28008KT P6SM SCT020=

USA.gov is the U.S. government's official web portal to all federal, state and local government web resources and services.